Time;durP1;ratioP1;P1;durP2;ratioP2;P2;SDS_P1;SDS_P2;PMS_P1;PMS_P2;Temp;Humidity;BMP_temperature;BMP_pressure;BME280_temperature;BME280_humidity;BME280_pressure;Samples;Min_cycle;Max_cycle;Signal;HPM_P1;HPM_P2
2023/06/15 00:08:02;;;;;;;;;;;22.90;50.40;;;;;;20914150;28;19931;-61
2023/06/15 00:18:03;;;;;;;;;;;22.90;50.40;;;;;;20913786;28;19925;-62
2023/06/15 00:28:03;;;;;;;;;;;22.90;49.80;;;;;;20912507;28;19964;-61
2023/06/15 00:38:04;;;;;;;;;;;23.00;49.10;;;;;;20916580;28;19932;-61
2023/06/15 00:48:05;;;;;;;;;;;22.90;49.40;;;;;;20929424;28;19925;-61
2023/06/15 00:58:06;;;;;;;;;;;22.80;49.70;;;;;;20928606;28;20023;-61
2023/06/15 01:08:08;;;;;;;;;;;22.70;50.10;;;;;;20927804;28;19935;-62
2023/06/15 01:18:09;;;;;;;;;;;22.70;50.50;;;;;;20926910;28;19929;-60
2023/06/15 01:28:11;;;;;;;;;;;22.60;50.60;;;;;;20926936;28;19982;-61
2023/06/15 01:38:11;;;;;;;;;;;22.50;50.80;;;;;;20924328;28;19932;-61
2023/06/15 01:48:13;;;;;;;;;;;22.40;50.80;;;;;;20924502;28;19925;-61
2023/06/15 01:58:17;;;;;;;;;;;22.40;50.70;;;;;;20923676;28;19925;-61
2023/06/15 02:08:18;;;;;;;;;;;22.30;50.60;;;;;;20921626;28;19925;-61
2023/06/15 02:18:18;;;;;;;;;;;22.10;51.00;;;;;;20922443;28;20335;-61
2023/06/15 02:28:19;;;;;;;;;;;22.10;50.90;;;;;;20920675;28;19925;-61
2023/06/15 02:38:20;;;;;;;;;;;22.10;50.70;;;;;;20920871;28;20012;-62
2023/06/15 02:48:21;;;;;;;;;;;21.90;50.80;;;;;;20920427;28;20268;-61
2023/06/15 02:58:24;;;;;;;;;;;21.80;50.50;;;;;;20919488;28;19974;-62
2023/06/15 03:08:25;;;;;;;;;;;21.70;50.60;;;;;;20917630;28;20378;-62
2023/06/15 03:18:26;;;;;;;;;;;21.70;50.60;;;;;;20917575;28;19928;-62
2023/06/15 03:28:27;;;;;;;;;;;21.60;50.80;;;;;;20917782;28;19931;-62
2023/06/15 03:38:28;;;;;;;;;;;21.60;51.00;;;;;;20916319;28;20021;-61
2023/06/15 03:48:29;;;;;;;;;;;21.50;51.50;;;;;;20915419;28;19964;-61
2023/06/15 03:58:29;;;;;;;;;;;21.40;52.00;;;;;;20913572;28;20291;-61
2023/06/15 04:08:31;;;;;;;;;;;21.30;52.50;;;;;;20913009;28;20399;-61
2023/06/15 04:18:32;;;;;;;;;;;21.20;52.80;;;;;;20914040;28;19925;-62
2023/06/15 04:28:33;;;;;;;;;;;21.20;53.00;;;;;;20912854;28;20026;-62
2023/06/15 04:38:33;;;;;;;;;;;21.00;53.30;;;;;;20913377;28;19943;-62
2023/06/15 04:48:36;;;;;;;;;;;21.00;53.50;;;;;;20910999;28;20512;-62
2023/06/15 04:58:37;;;;;;;;;;;20.90;53.50;;;;;;20912387;28;19924;-61
2023/06/15 05:08:37;;;;;;;;;;;20.90;53.90;;;;;;20910781;28;19948;-63
2023/06/15 05:18:38;;;;;;;;;;;20.80;54.90;;;;;;20912135;28;20392;-61
2023/06/15 05:28:39;;;;;;;;;;;20.70;55.60;;;;;;20920420;28;19925;-63
2023/06/15 05:38:39;;;;;;;;;;;20.60;55.90;;;;;;20925540;28;19931;-62
2023/06/15 05:48:40;;;;;;;;;;;20.50;56.10;;;;;;20924993;28;19977;-65
2023/06/15 05:58:40;;;;;;;;;;;20.50;56.00;;;;;;20923505;28;19925;-62
2023/06/15 06:08:41;;;;;;;;;;;20.60;55.70;;;;;;20923490;28;20410;-62
2023/06/15 06:18:42;;;;;;;;;;;20.70;55.80;;;;;;20921158;28;19925;-61
2023/06/15 06:28:42;;;;;;;;;;;20.80;55.50;;;;;;20921007;28;19979;-62
2023/06/15 06:38:43;;;;;;;;;;;21.10;55.10;;;;;;20918829;28;20389;-63
2023/06/15 06:48:43;;;;;;;;;;;21.30;53.00;;;;;;20918534;28;19925;-64
2023/06/15 06:58:44;;;;;;;;;;;21.70;50.80;;;;;;20918393;28;20039;-62
2023/06/15 07:08:46;;;;;;;;;;;22.40;48.60;;;;;;20915861;28;19925;-62
2023/06/15 07:18:47;;;;;;;;;;;23.00;46.60;;;;;;20915273;28;20012;-61
2023/06/15 07:28:48;;;;;;;;;;;23.80;45.10;;;;;;20914904;28;20420;-62
2023/06/15 07:38:48;;;;;;;;;;;24.20;44.30;;;;;;20914544;28;19925;-63
2023/06/15 07:48:49;;;;;;;;;;;24.60;42.90;;;;;;20914434;28;19924;-62
2023/06/15 07:58:50;;;;;;;;;;;25.10;41.70;;;;;;20912206;28;19925;-62
2023/06/15 08:08:50;;;;;;;;;;;25.40;40.50;;;;;;20912699;28;20433;-62
2023/06/15 08:18:51;;;;;;;;;;;25.60;39.60;;;;;;20912056;28;19976;-63
2023/06/15 08:28:52;;;;;;;;;;;25.90;39.70;;;;;;20911209;28;19932;-61
2023/06/15 08:38:52;;;;;;;;;;;26.30;38.30;;;;;;20912688;28;19932;-62
2023/06/15 08:48:53;;;;;;;;;;;26.30;37.60;;;;;;20912552;28;20016;-62
2023/06/15 08:58:54;;;;;;;;;;;26.70;37.10;;;;;;20915095;28;19925;-62
2023/06/15 09:08:55;;;;;;;;;;;26.90;36.30;;;;;;20928185;28;19986;-62
2023/06/15 09:18:55;;;;;;;;;;;27.10;35.70;;;;;;20926560;28;19960;-62
2023/06/15 09:28:57;;;;;;;;;;;27.20;35.10;;;;;;20924266;28;19991;-64
2023/06/15 09:38:57;;;;;;;;;;;27.30;36.00;;;;;;20923568;28;19925;-65
2023/06/15 09:48:58;;;;;;;;;;;27.70;35.30;;;;;;20923737;28;20311;-63
2023/06/15 09:59:02;;;;;;;;;;;27.90;40.30;;;;;;20923314;28;20028;-59
2023/06/15 10:09:06;;;;;;;;;;;27.60;36.40;;;;;;20922008;28;19929;-61
2023/06/15 10:19:10;;;;;;;;;;;27.90;35.10;;;;;;20921075;28;19932;-61
2023/06/15 10:29:23;;;;;;;;;;;28.20;34.70;;;;;;20921131;28;19925;-66
2023/06/15 10:39:35;;;;;;;;;;;28.20;34.90;;;;;;20919347;28;20336;-64
2023/06/15 10:49:36;;;;;;;;;;;28.40;34.50;;;;;;20915738;28;20019;-64
2023/06/15 10:59:47;;;;;;;;;;;28.60;33.10;;;;;;20917885;28;19975;-64
2023/06/15 11:09:47;;;;;;;;;;;28.80;33.40;;;;;;20917430;28;20301;-64
2023/06/15 11:19:48;;;;;;;;;;;28.60;33.00;;;;;;20914864;28;20015;-64
2023/06/15 11:29:53;;;;;;;;;;;28.90;33.40;;;;;;20913681;28;20332;-61
2023/06/15 11:39:54;;;;;;;;;;;28.90;32.90;;;;;;20912556;28;19972;-60
2023/06/15 11:49:57;;;;;;;;;;;29.00;32.80;;;;;;20914254;28;19925;-60
2023/06/15 11:59:59;;;;;;;;;;;29.30;32.50;;;;;;20913961;28;20423;-62
2023/06/15 12:10:00;;;;;;;;;;;29.10;32.60;;;;;;20913119;28;19924;-60
2023/06/15 12:20:01;;;;;;;;;;;29.20;32.40;;;;;;20911948;28;19939;-59
2023/06/15 12:30:11;;;;;;;;;;;29.50;31.70;;;;;;20911189;28;19979;-60
2023/06/15 12:40:12;;;;;;;;;;;29.50;32.00;;;;;;20926111;28;19929;-60
2023/06/15 12:50:12;;;;;;;;;;;29.60;31.20;;;;;;20928028;28;20061;-60
2023/06/15 13:00:14;;;;;;;;;;;29.70;31.10;;;;;;20926538;28;20357;-60
2023/06/15 13:10:15;;;;;;;;;;;29.70;30.50;;;;;;20925822;28;20408;-59
2023/06/15 13:20:16;;;;;;;;;;;29.70;30.20;;;;;;20925332;28;19924;-59
2023/06/15 13:30:17;;;;;;;;;;;29.90;30.20;;;;;;20925987;28;20314;-59
2023/06/15 13:40:17;;;;;;;;;;;29.90;29.70;;;;;;20925314;28;19928;-61
2023/06/15 13:50:18;;;;;;;;;;;30.10;30.30;;;;;;20923748;28;19925;-60
2023/06/15 14:00:19;;;;;;;;;;;29.80;29.80;;;;;;20923596;28;19979;-59
2023/06/15 14:10:20;;;;;;;;;;;30.10;30.00;;;;;;20922960;28;19924;-60
2023/06/15 14:20:21;;;;;;;;;;;30.40;29.40;;;;;;20920518;28;19970;-63
2023/06/15 14:30:21;;;;;;;;;;;30.60;29.60;;;;;;20921967;28;19925;-59
2023/06/15 14:40:22;;;;;;;;;;;30.40;29.40;;;;;;20920696;28;19924;-59
2023/06/15 14:50:23;;;;;;;;;;;30.50;28.90;;;;;;20919892;28;19924;-58
2023/06/15 15:00:23;;;;;;;;;;;30.50;29.30;;;;;;20917032;28;19925;-60
2023/06/15 15:10:24;;;;;;;;;;;30.50;29.30;;;;;;20917273;28;20302;-60
2023/06/15 15:20:25;;;;;;;;;;;30.60;29.50;;;;;;20917430;28;19964;-61
2023/06/15 15:30:25;;;;;;;;;;;30.60;29.30;;;;;;20917217;28;19925;-59
2023/06/15 15:40:26;;;;;;;;;;;30.60;29.70;;;;;;20916333;28;19935;-60
2023/06/15 15:50:26;;;;;;;;;;;30.60;29.40;;;;;;20915887;28;20306;-59
2023/06/15 16:00:27;;;;;;;;;;;30.30;29.60;;;;;;20915105;28;19936;-60
2023/06/15 16:10:28;;;;;;;;;;;30.30;30.20;;;;;;20913847;28;19982;-59
2023/06/15 16:20:28;;;;;;;;;;;30.50;29.30;;;;;;20912016;28;19925;-59
2023/06/15 16:30:29;;;;;;;;;;;30.50;29.80;;;;;;20912347;28;19960;-60
2023/06/15 16:40:30;;;;;;;;;;;30.60;29.80;;;;;;20913214;28;19924;-59
2023/06/15 16:50:30;;;;;;;;;;;30.50;29.80;;;;;;20912725;28;19978;-58
2023/06/15 17:00:31;;;;;;;;;;;30.60;29.70;;;;;;20911239;28;19932;-59
2023/06/15 17:10:31;;;;;;;;;;;30.60;29.30;;;;;;20911830;28;20399;-62
2023/06/15 17:20:32;;;;;;;;;;;30.60;29.80;;;;;;20915517;28;19932;-63
2023/06/15 17:30:33;;;;;;;;;;;30.60;29.60;;;;;;20926535;28;19935;-65
2023/06/15 17:40:33;;;;;;;;;;;30.60;29.90;;;;;;20924234;28;19978;-65
2023/06/15 17:50:34;;;;;;;;;;;30.40;30.20;;;;;;20923905;28;20382;-64
2023/06/15 18:00:35;;;;;;;;;;;30.60;30.30;;;;;;20922386;28;19925;-65
2023/06/15 18:10:36;;;;;;;;;;;30.20;30.10;;;;;;20923534;28;20301;-64
2023/06/15 18:20:38;;;;;;;;;;;30.20;30.50;;;;;;20922014;28;19947;-64
2023/06/15 18:30:39;;;;;;;;;;;30.00;30.70;;;;;;20921703;28;19971;-58
2023/06/15 18:40:40;;;;;;;;;;;30.00;30.70;;;;;;20919664;28;19971;-61
2023/06/15 18:50:41;;;;;;;;;;;30.00;30.80;;;;;;20920410;28;20023;-58
2023/06/15 19:00:43;;;;;;;;;;;30.00;31.40;;;;;;20919140;28;19925;-60
2023/06/15 19:10:44;;;;;;;;;;;29.80;30.80;;;;;;20918265;28;20397;-58
2023/06/15 19:20:45;;;;;;;;;;;29.60;31.50;;;;;;20917557;28;19924;-58
2023/06/15 19:30:46;;;;;;;;;;;29.50;31.80;;;;;;20916530;28;19968;-58
2023/06/15 19:40:46;;;;;;;;;;;29.30;32.50;;;;;;20915581;28;19924;-57
2023/06/15 19:50:47;;;;;;;;;;;29.10;32.90;;;;;;20913084;28;19924;-57
2023/06/15 20:00:48;;;;;;;;;;;28.90;33.60;;;;;;20913771;28;20324;-56
2023/06/15 20:10:49;;;;;;;;;;;28.60;33.80;;;;;;20913082;28;19925;-56
2023/06/15 20:20:49;;;;;;;;;;;28.50;34.20;;;;;;20913156;28;20054;-56
2023/06/15 20:30:50;;;;;;;;;;;28.40;34.50;;;;;;20911910;28;20018;-56
2023/06/15 20:40:51;;;;;;;;;;;28.30;35.00;;;;;;20912730;28;20386;-56
2023/06/15 20:50:52;;;;;;;;;;;28.20;34.90;;;;;;20912269;28;19979;-56
2023/06/15 21:00:52;;;;;;;;;;;28.10;35.40;;;;;;20924462;28;19925;-56
2023/06/15 21:10:53;;;;;;;;;;;28.00;36.20;;;;;;20927025;28;20037;-56
2023/06/15 21:20:54;;;;;;;;;;;27.50;37.20;;;;;;20924619;28;20004;-56
2023/06/15 21:30:54;;;;;;;;;;;27.20;37.40;;;;;;20925815;28;20022;-56
2023/06/15 21:40:55;;;;;;;;;;;27.10;38.30;;;;;;20925390;28;19975;-57
2023/06/15 21:50:55;;;;;;;;;;;27.10;38.10;;;;;;20924675;28;19925;-56
2023/06/15 22:00:56;;;;;;;;;;;27.00;39.10;;;;;;20923702;28;19925;-55
2023/06/15 22:10:57;;;;;;;;;;;26.80;40.00;;;;;;20920282;28;19931;-57
2023/06/15 22:20:57;;;;;;;;;;;26.60;40.80;;;;;;20921534;28;20011;-56
2023/06/15 22:30:58;;;;;;;;;;;26.40;41.90;;;;;;20920515;28;19983;-57
2023/06/15 22:40:59;;;;;;;;;;;26.10;42.90;;;;;;20918570;28;19979;-56
2023/06/15 22:50:59;;;;;;;;;;;25.90;44.20;;;;;;20919054;28;20377;-57
2023/06/15 23:01:00;;;;;;;;;;;25.80;44.80;;;;;;20918125;28;19924;-55
2023/06/15 23:11:01;;;;;;;;;;;25.70;45.40;;;;;;20917250;28;19979;-56
2023/06/15 23:21:01;;;;;;;;;;;25.60;46.50;;;;;;20914338;28;19972;-57
2023/06/15 23:31:02;;;;;;;;;;;25.50;46.70;;;;;;20916048;28;19925;-56
2023/06/15 23:41:02;;;;;;;;;;;25.30;48.00;;;;;;20915507;28;19925;-57
2023/06/15 23:51:03;;;;;;;;;;;25.10;48.80;;;;;;20915085;28;20004;-57
